Time;durP1;ratioP1;P1;durP2;ratioP2;P2;SDS_P1;SDS_P2;PMS_P1;PMS_P2;Temp;Humidity;BMP_temperature;BMP_pressure;BME280_temperature;BME280_humidity;BME280_pressure;Samples;Min_cycle;Max_cycle;Signal;HPM_P1;HPM_P2
2023/11/15 00:01:13;;;;;;;6.47;4.40;;;10.50;99.90;;;;;;5085807;28;20226;-82
2023/11/15 00:03:39;;;;;;;4.53;4.07;;;10.60;99.90;;;;;;5086578;28;20205;-84
2023/11/15 00:06:07;;;;;;;6.90;4.82;;;10.50;99.90;;;;;;5083162;28;20270;-83
2023/11/15 00:08:34;;;;;;;5.15;3.20;;;10.40;99.90;;;;;;5077249;28;20211;-84
2023/11/15 00:11:01;;;;;;;4.85;4.43;;;10.40;99.90;;;;;;5077994;28;20242;-83
2023/11/15 00:13:28;;;;;;;5.80;4.60;;;10.30;99.90;;;;;;5067952;28;20719;-83
2023/11/15 00:15:55;;;;;;;6.85;5.07;;;10.30;99.90;;;;;;5067138;28;20208;-82
2023/11/15 00:18:24;;;;;;;5.88;4.60;;;10.20;99.90;;;;;;5074816;28;20241;-85
2023/11/15 00:20:51;;;;;;;7.05;5.05;;;10.30;99.90;;;;;;5068398;28;20223;-83
2023/11/15 00:23:18;;;;;;;6.13;5.00;;;10.30;99.90;;;;;;5082262;28;20184;-81
2023/11/15 00:25:45;;;;;;;10.18;4.75;;;10.30;99.90;;;;;;5081028;28;20303;-82
2023/11/15 00:28:13;;;;;;;7.15;4.32;;;10.20;99.90;;;;;;5063489;28;20721;-82
2023/11/15 00:30:40;;;;;;;6.07;4.15;;;10.10;99.90;;;;;;5066194;28;20239;-82
2023/11/15 00:33:08;;;;;;;6.28;4.60;;;10.10;99.90;;;;;;5076990;28;20207;-82
2023/11/15 00:35:36;;;;;;;5.63;4.80;;;10.20;99.90;;;;;;5064278;28;20245;-82
2023/11/15 00:38:04;;;;;;;10.68;5.03;;;10.00;99.90;;;;;;5081352;28;20211;-82
2023/11/15 00:40:31;;;;;;;5.97;5.18;;;10.00;99.90;;;;;;5065531;28;20211;-82
2023/11/15 00:42:58;;;;;;;8.32;4.70;;;10.00;99.90;;;;;;5070237;28;20230;-83
2023/11/15 00:45:25;;;;;;;6.22;5.10;;;10.10;99.90;;;;;;5071830;28;20202;-82
2023/11/15 00:47:52;;;;;;;6.50;5.28;;;10.10;99.90;;;;;;5078619;28;20246;-83
2023/11/15 00:50:19;;;;;;;6.65;5.00;;;10.10;99.90;;;;;;5082582;28;20206;-83
2023/11/15 00:52:48;;;;;;;12.32;5.60;;;10.10;99.90;;;;;;5079642;28;20223;-81
2023/11/15 00:55:16;;;;;;;6.65;5.07;;;10.10;99.90;;;;;;5079950;28;20211;-81
2023/11/15 00:57:44;;;;;;;7.80;5.57;;;10.00;99.90;;;;;;5081645;28;20213;-83
2023/11/15 01:00:23;;;;;;;10.48;5.80;;;10.00;99.90;;;;;;5077952;28;20205;-84
2023/11/15 01:02:51;;;;;;;6.82;3.97;;;10.00;99.90;;;;;;5069074;28;20203;-85
2023/11/15 01:05:18;;;;;;;7.03;4.68;;;9.90;99.90;;;;;;5078047;28;20207;-83
2023/11/15 01:07:45;;;;;;;5.57;4.47;;;9.80;99.90;;;;;;5075748;28;20293;-82
2023/11/15 01:10:14;;;;;;;5.22;4.72;;;9.80;99.90;;;;;;5072979;28;20235;-81
2023/11/15 01:12:41;;;;;;;10.88;4.13;;;9.80;99.90;;;;;;5077776;28;20274;-81
2023/11/15 01:15:11;;;;;;;10.63;5.00;;;9.80;99.90;;;;;;5087628;28;20274;-83
2023/11/15 01:17:38;;;;;;;12.82;4.60;;;9.70;99.90;;;;;;5084515;28;20215;-82
2023/11/15 01:20:06;;;;;;;4.22;3.83;;;9.60;99.90;;;;;;5072162;28;20231;-82
2023/11/15 01:22:33;;;;;;;7.15;4.90;;;9.60;99.90;;;;;;5072018;28;20212;-82
2023/11/15 01:25:00;;;;;;;4.72;3.50;;;9.60;99.90;;;;;;5084546;28;20211;-84
2023/11/15 01:27:28;;;;;;;7.53;3.70;;;9.60;99.90;;;;;;5070217;28;20235;-82
2023/11/15 01:29:55;;;;;;;4.47;3.38;;;9.60;99.90;;;;;;5075364;28;20235;-82
2023/11/15 01:32:22;;;;;;;6.05;3.10;;;9.60;99.90;;;;;;5073855;28;20283;-84
2023/11/15 01:34:49;;;;;;;7.15;4.47;;;9.60;99.90;;;;;;5069843;28;20235;-83
2023/11/15 01:37:16;;;;;;;3.90;3.22;;;9.50;99.90;;;;;;5081954;28;20217;-81
2023/11/15 01:39:43;;;;;;;6.93;4.00;;;9.50;99.90;;;;;;5074943;28;20277;-80
2023/11/15 01:42:11;;;;;;;9.10;4.85;;;9.50;99.90;;;;;;5074034;28;20223;-83
2023/11/15 01:44:39;;;;;;;9.25;3.55;;;9.40;99.90;;;;;;5072371;28;20232;-83
2023/11/15 01:47:06;;;;;;;5.05;4.05;;;9.50;99.90;;;;;;5083339;28;20529;-81
2023/11/15 01:49:33;;;;;;;3.80;2.80;;;9.50;99.90;;;;;;5082534;28;20309;-82
2023/11/15 01:52:00;;;;;;;5.60;3.03;;;9.40;99.90;;;;;;5074282;28;20221;-81
2023/11/15 01:54:29;;;;;;;6.50;3.65;;;9.40;99.90;;;;;;5098584;28;20226;-81
2023/11/15 01:56:56;;;;;;;7.50;3.53;;;9.40;99.90;;;;;;5083117;28;20713;-81
2023/11/15 01:59:23;;;;;;;5.80;3.50;;;9.30;99.90;;;;;;5090463;28;20251;-81
2023/11/15 02:01:52;;;;;;;3.97;2.83;;;9.30;99.90;;;;;;5085052;28;20235;-80
2023/11/15 02:04:20;;;;;;;6.50;2.63;;;9.30;99.90;;;;;;5095133;28;20207;-81
2023/11/15 02:06:47;;;;;;;4.13;2.58;;;9.20;99.90;;;;;;5097333;28;20277;-81
2023/11/15 02:09:14;;;;;;;2.50;2.20;;;9.30;99.90;;;;;;5095463;28;20274;-81
2023/11/15 02:11:41;;;;;;;4.90;2.88;;;9.20;99.90;;;;;;5099757;28;20213;-82
2023/11/15 02:14:08;;;;;;;3.85;2.92;;;9.20;99.90;;;;;;5092351;28;20196;-81
2023/11/15 02:16:35;;;;;;;4.45;2.22;;;9.20;99.90;;;;;;5088974;28;20198;-80
2023/11/15 02:19:03;;;;;;;10.73;2.60;;;9.20;99.90;;;;;;5089872;28;20233;-82
2023/11/15 02:21:30;;;;;;;11.63;2.80;;;9.20;99.90;;;;;;5077725;28;20219;-82
2023/11/15 02:24:00;;;;;;;7.65;3.03;;;9.30;99.90;;;;;;5082462;28;20273;-82
2023/11/15 02:26:26;;;;;;;5.40;2.88;;;9.30;99.90;;;;;;5066666;28;20196;-82
2023/11/15 02:28:54;;;;;;;5.03;3.35;;;9.30;99.90;;;;;;5080996;28;20219;-81
2023/11/15 02:31:21;;;;;;;3.50;2.75;;;9.30;99.90;;;;;;5080749;28;20229;-82
2023/11/15 02:33:48;;;;;;;6.22;4.10;;;9.20;99.90;;;;;;5067503;28;20271;-82
2023/11/15 02:36:15;;;;;;;5.90;2.40;;;9.20;99.90;;;;;;5072590;28;20212;-81
2023/11/15 02:38:42;;;;;;;4.53;2.80;;;9.30;99.90;;;;;;5064783;28;20262;-82
2023/11/15 02:41:10;;;;;;;5.07;2.65;;;9.30;99.90;;;;;;5078658;28;20238;-82
2023/11/15 02:43:38;;;;;;;7.22;2.92;;;9.30;99.90;;;;;;5079659;28;20210;-84
2023/11/15 02:46:05;;;;;;;5.55;3.35;;;9.30;99.90;;;;;;5077713;28;20453;-83
2023/11/15 02:48:32;;;;;;;4.13;2.92;;;9.30;99.90;;;;;;5074221;28;20259;-84
2023/11/15 02:50:59;;;;;;;4.00;2.40;;;9.30;99.90;;;;;;5074514;28;20259;-82
2023/11/15 02:53:26;;;;;;;6.43;3.00;;;9.30;99.90;;;;;;5073421;28;20203;-82
2023/11/15 02:55:52;;;;;;;5.28;2.72;;;9.30;99.90;;;;;;5076796;28;20673;-81
2023/11/15 02:58:21;;;;;;;3.15;2.67;;;9.30;99.90;;;;;;5067205;28;20202;-83
2023/11/15 03:00:46;;;;;;;4.28;2.38;;;9.20;99.90;;;;;;5061981;28;20777;-82
2023/11/15 03:03:14;;;;;;;8.70;3.60;;;9.20;99.90;;;;;;5068977;28;20305;-80
2023/11/15 03:05:41;;;;;;;7.82;3.38;;;9.10;99.90;;;;;;5077464;28;20920;-81
2023/11/15 03:08:08;;;;;;;3.25;2.50;;;9.00;99.90;;;;;;5075567;28;20211;-82
2023/11/15 03:10:35;;;;;;;4.75;3.75;;;9.00;99.90;;;;;;5071812;28;20699;-81
2023/11/15 03:13:03;;;;;;;6.25;2.97;;;9.00;99.90;;;;;;5067861;28;20199;-81
2023/11/15 03:15:31;;;;;;;4.93;2.80;;;9.10;99.90;;;;;;5073049;28;20204;-82
2023/11/15 03:17:59;;;;;;;3.28;3.03;;;9.10;99.90;;;;;;5078189;28;20678;-81
2023/11/15 03:20:26;;;;;;;5.65;3.67;;;9.20;99.90;;;;;;5069598;28;20198;-81
2023/11/15 03:22:53;;;;;;;2.53;2.28;;;9.30;99.90;;;;;;5079031;28;20204;-82
2023/11/15 03:25:19;;;;;;;5.75;2.42;;;9.10;99.90;;;;;;5076539;28;20199;-81
2023/11/15 03:27:46;;;;;;;4.30;3.90;;;9.30;99.90;;;;;;5062260;28;20263;-82
2023/11/15 03:30:15;;;;;;;7.07;4.13;;;9.20;99.90;;;;;;5068941;28;20243;-82
2023/11/15 03:32:43;;;;;;;7.30;3.60;;;9.20;99.90;;;;;;5063713;28;20226;-81
2023/11/15 03:35:11;;;;;;;4.55;4.00;;;9.30;99.90;;;;;;5068485;28;20271;-80
2023/11/15 03:37:38;;;;;;;7.25;5.10;;;9.30;99.90;;;;;;5071145;28;20242;-81
2023/11/15 03:40:08;;;;;;;6.25;4.13;;;9.30;99.90;;;;;;5080052;28;20278;-83
2023/11/15 03:42:36;;;;;;;6.00;4.03;;;9.40;99.90;;;;;;5074266;28;20713;-80
2023/11/15 03:45:04;;;;;;;7.40;4.65;;;9.40;99.90;;;;;;5075838;28;20449;-83
2023/11/15 03:47:30;;;;;;;6.57;4.10;;;9.40;99.90;;;;;;5068401;28;20571;-82
2023/11/15 03:49:59;;;;;;;9.18;4.15;;;9.40;99.90;;;;;;5079420;28;20234;-82
2023/11/15 03:52:26;;;;;;;7.22;4.50;;;9.40;99.90;;;;;;5070999;28;20306;-82
2023/11/15 03:54:52;;;;;;;5.65;5.05;;;9.40;99.90;;;;;;5081539;28;20241;-81
2023/11/15 03:57:19;;;;;;;5.93;4.20;;;9.30;99.90;;;;;;5084489;28;20216;-81
2023/11/15 03:59:46;;;;;;;9.02;5.68;;;9.30;99.90;;;;;;5070034;28;20211;-82
2023/11/15 04:02:13;;;;;;;8.80;5.03;;;9.40;99.90;;;;;;5070428;28;20226;-81
2023/11/15 04:04:40;;;;;;;6.15;4.38;;;9.20;99.90;;;;;;5066048;28;20311;-83
2023/11/15 04:07:08;;;;;;;6.18;5.15;;;9.20;99.90;;;;;;5069977;28;20286;-81
2023/11/15 04:09:36;;;;;;;8.43;5.60;;;9.30;99.90;;;;;;5065643;28;20213;-83
2023/11/15 04:12:03;;;;;;;7.75;5.80;;;9.00;99.90;;;;;;5078085;28;20515;-84
2023/11/15 04:14:30;;;;;;;6.70;5.20;;;9.00;99.90;;;;;;5071305;28;20197;-82
2023/11/15 04:16:57;;;;;;;9.77;4.45;;;8.80;99.90;;;;;;5075590;28;20234;-83
2023/11/15 04:19:23;;;;;;;8.70;6.28;;;8.70;99.90;;;;;;5070650;28;20295;-84
2023/11/15 04:21:51;;;;;;;9.30;7.03;;;8.70;99.90;;;;;;5077913;28;20607;-83
2023/11/15 04:24:19;;;;;;;7.45;5.85;;;8.60;99.90;;;;;;5072051;28;20200;-81
2023/11/15 04:26:46;;;;;;;8.68;5.88;;;8.50;99.90;;;;;;5075868;28;20275;-82
2023/11/15 04:29:13;;;;;;;11.48;7.72;;;8.60;99.90;;;;;;5070983;28;20306;-82
2023/11/15 04:31:40;;;;;;;9.23;5.05;;;8.60;99.90;;;;;;5071161;28;20828;-82
2023/11/15 04:34:07;;;;;;;12.23;5.20;;;8.60;99.90;;;;;;5061468;28;20204;-82
2023/11/15 04:36:34;;;;;;;8.68;5.80;;;8.60;99.90;;;;;;5063187;28;20196;-82
2023/11/15 04:39:01;;;;;;;7.90;4.80;;;8.70;99.90;;;;;;5074831;28;20195;-82
2023/11/15 04:41:29;;;;;;;10.18;6.10;;;8.70;99.90;;;;;;5063844;28;20233;-82
2023/11/15 04:43:56;;;;;;;7.13;6.10;;;8.80;99.90;;;;;;5076097;28;20203;-82
2023/11/15 04:46:23;;;;;;;8.65;5.75;;;8.80;99.90;;;;;;5078897;28;20329;-81
2023/11/15 04:48:50;;;;;;;7.00;5.78;;;8.80;99.90;;;;;;5079496;28;20230;-83
2023/11/15 04:51:17;;;;;;;7.07;5.80;;;8.80;99.90;;;;;;5080493;28;20238;-81
2023/11/15 04:53:43;;;;;;;7.65;5.20;;;8.80;99.90;;;;;;5064720;28;20395;-81
2023/11/15 04:56:11;;;;;;;7.47;5.45;;;8.80;99.90;;;;;;5073753;28;20227;-80
2023/11/15 04:58:40;;;;;;;6.72;4.55;;;8.90;99.90;;;;;;5063358;28;20233;-83
2023/11/15 05:01:06;;;;;;;5.95;4.18;;;9.00;99.90;;;;;;5066924;28;20475;-81
2023/11/15 05:03:33;;;;;;;6.10;4.50;;;9.10;99.90;;;;;;5062570;28;20286;-82
2023/11/15 05:05:59;;;;;;;10.80;4.88;;;9.10;99.90;;;;;;5075865;28;20474;-82
2023/11/15 05:08:26;;;;;;;7.53;4.40;;;9.00;99.90;;;;;;5073036;28;20830;-82
2023/11/15 05:10:53;;;;;;;6.40;5.25;;;9.00;99.90;;;;;;5065371;28;20330;-80
2023/11/15 05:13:20;;;;;;;7.40;3.92;;;9.00;99.90;;;;;;5078615;28;20285;-83
2023/11/15 05:15:49;;;;;;;11.40;4.13;;;9.00;99.90;;;;;;5068601;28;20689;-80
2023/11/15 05:18:16;;;;;;;7.60;4.50;;;8.90;99.90;;;;;;5077059;28;20199;-81
2023/11/15 05:20:43;;;;;;;7.18;4.75;;;8.90;99.90;;;;;;5072820;28;20207;-82
2023/11/15 05:23:10;;;;;;;9.38;5.22;;;8.80;99.90;;;;;;5070233;28;20208;-81
2023/11/15 05:25:37;;;;;;;7.25;5.20;;;8.80;99.90;;;;;;5067760;28;20674;-81
2023/11/15 05:28:05;;;;;;;7.65;5.00;;;8.80;99.90;;;;;;5070541;28;20906;-82
2023/11/15 05:30:32;;;;;;;6.50;4.07;;;8.80;99.90;;;;;;5067579;28;20219;-81
2023/11/15 05:33:01;;;;;;;7.05;4.72;;;8.80;99.90;;;;;;5066102;28;20207;-82
2023/11/15 05:35:28;;;;;;;9.38;5.05;;;8.80;99.90;;;;;;5081320;28;20200;-85
2023/11/15 05:37:55;;;;;;;6.10;4.72;;;8.80;99.90;;;;;;5080770;28;20231;-83
2023/11/15 05:40:22;;;;;;;8.70;4.22;;;8.80;99.90;;;;;;5081477;28;20277;-83
2023/11/15 05:42:49;;;;;;;6.20;4.32;;;8.80;99.90;;;;;;5080815;28;20219;-84
2023/11/15 05:45:16;;;;;;;7.90;4.60;;;8.80;99.90;;;;;;5081006;28;20200;-83
2023/11/15 05:47:43;;;;;;;6.07;4.43;;;8.80;99.90;;;;;;5077611;28;20199;-84
2023/11/15 05:50:11;;;;;;;8.30;4.63;;;8.70;99.90;;;;;;5085274;28;20220;-84
2023/11/15 05:52:39;;;;;;;6.35;4.63;;;8.70;99.90;;;;;;5080857;28;20314;-84
2023/11/15 05:55:07;;;;;;;5.50;3.53;;;8.70;99.90;;;;;;5078598;28;20247;-84
2023/11/15 06:00:48;;;;;;;6.43;3.50;;;8.70;99.90;;;;;;5048503;28;20222;-83
2023/11/15 06:03:15;;;;;;;8.57;4.40;;;8.60;99.90;;;;;;5085687;28;20212;-84
2023/11/15 06:05:43;;;;;;;4.93;4.05;;;8.60;99.90;;;;;;5082161;28;20463;-84
2023/11/15 06:08:10;;;;;;;5.47;4.03;;;8.70;99.90;;;;;;5090222;28;20217;-85
2023/11/15 06:10:37;;;;;;;6.43;4.25;;;8.70;99.90;;;;;;5081647;28;20235;-85
2023/11/15 06:13:06;;;;;;;4.20;3.40;;;8.70;99.90;;;;;;5080628;28;20211;-83
2023/11/15 06:15:32;;;;;;;7.10;4.43;;;8.60;99.90;;;;;;5082945;28;20211;-85
2023/11/15 06:18:00;;;;;;;5.00;3.95;;;8.60;99.90;;;;;;5083092;28;20210;-84
2023/11/15 06:20:29;;;;;;;6.10;4.75;;;8.70;99.90;;;;;;5079578;28;20268;-84
2023/11/15 06:22:57;;;;;;;4.63;3.53;;;8.70;99.90;;;;;;5078504;28;20203;-84
2023/11/15 06:25:24;;;;;;;9.32;4.95;;;8.60;99.90;;;;;;5079979;28;20199;-84
2023/11/15 06:27:52;;;;;;;8.70;5.13;;;8.50;99.90;;;;;;5083164;28;20209;-86
2023/11/15 06:30:19;;;;;;;9.40;5.07;;;8.70;99.90;;;;;;5076110;28;20231;-85
2023/11/15 06:32:46;;;;;;;12.23;5.47;;;8.60;99.90;;;;;;5080040;28;20236;-83
2023/11/15 06:35:18;;;;;;;8.35;5.32;;;8.60;99.90;;;;;;5084554;28;20564;-84
2023/11/15 06:37:46;;;;;;;8.40;5.68;;;8.60;99.90;;;;;;5074721;28;20657;-86
2023/11/15 06:40:15;;;;;;;9.93;6.65;;;8.70;99.90;;;;;;5078331;28;20198;-85
2023/11/15 06:42:43;;;;;;;10.75;6.50;;;8.70;99.90;;;;;;5074063;28;20257;-85
2023/11/15 06:45:12;;;;;;;7.88;6.65;;;8.60;99.90;;;;;;5083727;28;20224;-84
2023/11/15 06:47:40;;;;;;;11.63;6.30;;;8.70;99.90;;;;;;5076142;28;20214;-83
2023/11/15 06:50:09;;;;;;;8.43;6.10;;;8.70;99.90;;;;;;5075995;28;20217;-85
2023/11/15 06:52:37;;;;;;;8.57;5.57;;;8.80;99.90;;;;;;5080619;28;20282;-86
2023/11/15 06:55:06;;;;;;;8.05;5.07;;;8.90;99.90;;;;;;5082790;28;20213;-85
2023/11/15 06:57:35;;;;;;;10.65;6.00;;;8.90;99.90;;;;;;5083910;28;20588;-85
2023/11/15 07:00:03;;;;;;;8.07;5.30;;;9.00;99.90;;;;;;5080055;28;20264;-86
2023/11/15 07:02:30;;;;;;;14.75;7.45;;;9.10;99.90;;;;;;5082024;28;20474;-84
2023/11/15 07:04:57;;;;;;;7.53;6.22;;;9.20;99.90;;;;;;5079927;28;20249;-83
2023/11/15 07:07:25;;;;;;;10.32;5.93;;;9.20;99.90;;;;;;5072187;28;20283;-85
2023/11/15 07:09:52;;;;;;;11.15;6.93;;;9.20;99.90;;;;;;5071502;28;20219;-86
2023/11/15 07:12:19;;;;;;;6.82;4.65;;;9.20;99.90;;;;;;5085939;28;20230;-84
2023/11/15 07:14:48;;;;;;;8.60;5.30;;;9.20;99.90;;;;;;5072801;28;20234;-83
2023/11/15 07:17:18;;;;;;;11.65;9.13;;;9.20;99.90;;;;;;5072413;28;20202;-85
2023/11/15 07:19:44;;;;;;;14.70;7.72;;;9.20;99.90;;;;;;5077394;28;20207;-86
2023/11/15 07:22:11;;;;;;;10.70;6.93;;;9.20;99.90;;;;;;5074568;28;20281;-86
2023/11/15 07:24:41;;;;;;;11.80;6.47;;;9.30;99.90;;;;;;5077668;28;20233;-83
2023/11/15 07:27:08;;;;;;;10.02;6.97;;;9.30;99.90;;;;;;5073176;28;20199;-86
2023/11/15 07:29:36;;;;;;;14.68;7.70;;;9.50;99.90;;;;;;5068484;28;20469;-85
2023/11/15 07:32:07;;;;;;;11.73;7.85;;;9.60;99.90;;;;;;5077790;28;20307;-86
2023/11/15 07:34:35;;;;;;;9.05;6.55;;;9.70;99.90;;;;;;5073576;28;20262;-85
2023/11/15 07:37:02;;;;;;;12.23;6.82;;;9.60;99.90;;;;;;5072986;28;20207;-84
2023/11/15 07:39:30;;;;;;;12.52;7.20;;;9.60;99.90;;;;;;5073358;28;20267;-85
2023/11/15 07:41:58;;;;;;;11.05;9.00;;;9.50;99.90;;;;;;5071396;28;20239;-85
2023/11/15 07:44:25;;;;;;;10.52;7.57;;;9.40;99.90;;;;;;5074519;28;20199;-82
2023/11/15 07:46:54;;;;;;;16.95;7.82;;;9.40;99.90;;;;;;5081369;28;20203;-83
2023/11/15 07:49:23;;;;;;;13.73;8.98;;;9.30;99.90;;;;;;5076907;28;20207;-84
2023/11/15 07:51:51;;;;;;;14.05;8.90;;;9.40;99.90;;;;;;5069737;28;20238;-84
2023/11/15 07:54:19;;;;;;;14.02;9.07;;;9.40;99.90;;;;;;5076713;28;20236;-84
2023/11/15 07:56:46;;;;;;;12.13;9.10;;;9.50;99.90;;;;;;5074345;28;20688;-85
2023/11/15 07:59:12;;;;;;;14.75;9.90;;;9.60;99.90;;;;;;5084398;28;20199;-85
2023/11/15 08:01:42;;;;;;;17.20;9.85;;;9.50;99.90;;;;;;5076444;28;20255;-87
2023/11/15 08:04:09;;;;;;;15.52;10.48;;;9.50;99.90;;;;;;5076698;28;20442;-85
2023/11/15 08:06:38;;;;;;;16.88;10.82;;;9.60;99.90;;;;;;5079491;28;20239;-86
2023/11/15 08:09:05;;;;;;;19.95;11.65;;;9.70;99.90;;;;;;5072687;28;20223;-87
2023/11/15 08:11:34;;;;;;;18.42;9.63;;;9.70;99.90;;;;;;5085145;28;20267;-86
2023/11/15 08:14:05;;;;;;;16.85;9.82;;;9.70;99.90;;;;;;5076382;28;20209;-85
2023/11/15 08:16:33;;;;;;;13.75;8.52;;;10.00;99.90;;;;;;5082220;28;20212;-86
2023/11/15 08:19:00;;;;;;;12.00;8.45;;;10.20;99.90;;;;;;5085728;28;20286;-87
2023/11/15 08:21:27;;;;;;;17.60;8.57;;;10.30;99.90;;;;;;5082025;28;20272;-85
2023/11/15 08:23:56;;;;;;;13.43;8.35;;;10.40;99.90;;;;;;5076354;28;20233;-85
2023/11/15 08:26:23;;;;;;;11.65;7.75;;;10.40;99.90;;;;;;5086299;28;20201;-85
2023/11/15 08:28:50;;;;;;;20.15;10.73;;;10.50;99.90;;;;;;5083104;28;20240;-85
2023/11/15 08:31:22;;;;;;;13.55;9.40;;;10.20;99.90;;;;;;5086727;28;20353;-84
2023/11/15 08:33:49;;;;;;;16.80;10.00;;;10.20;99.90;;;;;;5085515;28;20303;-84
2023/11/15 08:36:16;;;;;;;17.50;10.50;;;10.20;99.90;;;;;;5088925;28;20241;-86
2023/11/15 08:38:44;;;;;;;17.33;9.80;;;10.00;99.90;;;;;;5093695;28;20211;-85
2023/11/15 08:41:16;;;;;;;11.40;8.68;;;9.90;99.90;;;;;;5090871;28;20236;-88
2023/11/15 08:43:43;;;;;;;16.35;10.60;;;10.00;99.90;;;;;;5087800;28;20288;-85
2023/11/15 08:46:10;;;;;;;19.05;12.25;;;10.00;99.90;;;;;;5086900;28;20267;-85
2023/11/15 08:48:37;;;;;;;19.23;11.05;;;9.70;99.90;;;;;;5089960;28;20236;-86
2023/11/15 08:51:07;;;;;;;15.93;11.55;;;9.60;99.90;;;;;;5090566;28;20238;-84
2023/11/15 08:53:34;;;;;;;18.23;12.02;;;9.50;99.90;;;;;;5092965;28;20199;-86
2023/11/15 08:56:02;;;;;;;19.60;11.88;;;9.60;99.90;;;;;;5090246;28;20211;-85
2023/11/15 08:58:32;;;;;;;17.08;11.40;;;9.60;99.90;;;;;;5090876;28;20291;-86
2023/11/15 09:01:01;;;;;;;19.38;13.35;;;9.80;99.90;;;;;;5088512;28;20226;-85
2023/11/15 09:03:28;;;;;;;19.48;11.48;;;10.10;99.90;;;;;;5085470;28;20214;-87
2023/11/15 09:05:56;;;;;;;18.17;10.73;;;10.20;99.90;;;;;;5091624;28;20207;-86
2023/11/15 09:08:23;;;;;;;14.35;8.50;;;10.30;99.90;;;;;;5086851;28;20227;-85
2023/11/15 09:10:50;;;;;;;12.40;8.63;;;10.30;99.90;;;;;;5090054;28;20231;-87
2023/11/15 09:13:18;;;;;;;14.05;9.65;;;10.30;99.90;;;;;;5088775;28;20215;-86
2023/11/15 09:15:47;;;;;;;14.90;9.85;;;10.40;99.90;;;;;;5082510;28;20280;-85
2023/11/15 09:18:15;;;;;;;11.57;6.87;;;10.40;99.90;;;;;;5077349;28;20211;-85
2023/11/15 09:20:43;;;;;;;13.60;8.35;;;10.30;99.90;;;;;;5078196;28;20442;-85
2023/11/15 09:23:13;;;;;;;15.50;8.30;;;10.40;99.90;;;;;;5088305;28;20207;-85
2023/11/15 09:25:40;;;;;;;14.55;9.90;;;10.60;99.90;;;;;;5096830;28;20203;-84
2023/11/15 09:28:07;;;;;;;11.93;8.10;;;10.70;99.90;;;;;;5083403;28;20226;-85
2023/11/15 09:30:35;;;;;;;10.48;8.32;;;10.80;99.90;;;;;;5078775;28;20227;-85
2023/11/15 09:33:05;;;;;;;13.02;7.47;;;10.70;99.90;;;;;;5090747;28;20224;-86
2023/11/15 09:35:36;;;;;;;9.52;7.30;;;10.90;99.90;;;;;;5096883;28;20212;-84
2023/11/15 09:38:08;;;;;;;10.02;7.95;;;11.10;99.90;;;;;;5098763;28;20207;-85
2023/11/15 09:40:40;;;;;;;14.52;10.27;;;11.10;99.90;;;;;;5094982;28;20204;-86
2023/11/15 09:43:07;;;;;;;8.75;6.95;;;11.20;99.90;;;;;;5099544;28;20207;-85
2023/11/15 09:45:38;;;;;;;15.90;7.22;;;11.20;99.90;;;;;;5090709;28;20209;-86
2023/11/15 09:48:08;;;;;;;10.20;7.22;;;11.20;99.90;;;;;;5096077;28;20196;-86
2023/11/15 09:50:37;;;;;;;10.20;7.68;;;11.20;99.90;;;;;;5092798;28;20212;-86
2023/11/15 09:53:05;;;;;;;7.53;6.50;;;11.20;99.90;;;;;;5087810;28;20219;-87
2023/11/15 09:55:33;;;;;;;10.80;8.67;;;11.40;99.90;;;;;;5093145;28;20210;-86
2023/11/15 09:58:00;;;;;;;11.55;5.80;;;11.60;99.90;;;;;;5097656;28;20463;-87
2023/11/15 10:00:29;;;;;;;10.85;7.25;;;12.10;99.90;;;;;;5092031;28;20195;-86
2023/11/15 10:02:56;;;;;;;7.60;5.80;;;12.30;99.90;;;;;;5094974;28;20199;-84
2023/11/15 10:05:27;;;;;;;8.00;5.80;;;12.40;99.90;;;;;;5088385;28;20204;-86
2023/11/15 10:08:10;;;;;;;8.20;4.63;;;12.30;99.90;;;;;;5082817;28;20265;-85
2023/11/15 10:10:38;;;;;;;9.63;6.13;;;12.10;99.90;;;;;;5086366;28;20223;-86
2023/11/15 10:13:14;;;;;;;9.13;6.25;;;12.10;99.90;;;;;;5078548;28;20204;-86
2023/11/15 10:15:44;;;;;;;8.70;6.18;;;12.10;99.90;;;;;;5077704;28;20233;-85
2023/11/15 10:18:12;;;;;;;6.25;5.53;;;12.30;99.90;;;;;;5085312;28;20211;-85
2023/11/15 10:20:42;;;;;;;7.63;6.13;;;12.20;99.90;;;;;;5083437;28;20203;-86
2023/11/15 10:23:11;;;;;;;7.53;5.47;;;11.90;99.90;;;;;;5081544;28;20211;-87
2023/11/15 10:25:47;;;;;;;7.13;5.67;;;11.90;99.90;;;;;;5083640;28;20206;-85
2023/11/15 10:28:15;;;;;;;7.05;4.72;;;12.10;99.90;;;;;;5083075;28;20856;-86
2023/11/15 10:30:42;;;;;;;7.13;5.97;;;12.40;99.90;;;;;;5082015;28;20294;-86
2023/11/15 10:33:11;;;;;;;9.23;6.20;;;12.60;99.90;;;;;;5083803;28;20218;-84
2023/11/15 10:35:40;;;;;;;11.88;5.60;;;12.60;99.90;;;;;;5076630;28;20245;-86
2023/11/15 10:38:14;;;;;;;6.63;5.72;;;12.30;99.90;;;;;;5078138;28;20218;-86
2023/11/15 10:40:41;;;;;;;8.18;5.63;;;12.20;99.90;;;;;;5087951;28;20301;-85
2023/11/15 10:43:11;;;;;;;12.35;7.05;;;12.30;99.90;;;;;;5086703;28;20226;-85
2023/11/15 10:45:40;;;;;;;7.32;6.57;;;12.20;99.90;;;;;;5090389;28;20211;-86
2023/11/15 10:48:17;;;;;;;16.95;7.45;;;12.10;99.90;;;;;;5085946;28;20214;-84
2023/11/15 10:50:49;;;;;;;11.48;7.90;;;12.00;99.90;;;;;;5086806;28;20484;-83
2023/11/15 10:53:19;;;;;;;13.25;7.50;;;12.10;99.90;;;;;;5078543;28;20261;-85
2023/11/15 10:55:48;;;;;;;9.68;6.97;;;12.00;99.90;;;;;;5081420;28;20203;-84
2023/11/15 10:58:22;;;;;;;14.85;7.45;;;11.90;99.90;;;;;;5081290;28;20295;-85
2023/11/15 11:00:54;;;;;;;16.60;6.35;;;12.10;99.90;;;;;;5083887;28;20223;-85
2023/11/15 11:03:24;;;;;;;11.48;6.30;;;12.00;99.90;;;;;;5076506;28;20230;-83
2023/11/15 11:05:57;;;;;;;10.32;6.40;;;11.90;99.90;;;;;;5080247;28;20696;-84
2023/11/15 11:08:32;;;;;;;6.73;5.70;;;12.00;99.90;;;;;;5084566;28;20199;-82
2023/11/15 11:11:20;;;;;;;7.65;6.00;;;12.00;99.90;;;;;;5081436;28;20495;-85
2023/11/15 11:14:11;;;;;;;13.02;6.40;;;12.00;99.90;;;;;;5091033;28;20202;-81
2023/11/15 11:16:40;;;;;;;9.15;5.57;;;12.10;99.90;;;;;;5079643;28;20207;-80
2023/11/15 11:19:13;;;;;;;8.57;5.20;;;12.30;99.90;;;;;;5092178;28;20194;-80
2023/11/15 11:22:08;;;;;;;6.45;5.80;;;12.40;99.90;;;;;;5087688;28;20226;-81
2023/11/15 11:24:38;;;;;;;10.18;5.80;;;12.30;99.90;;;;;;5087157;28;20201;-81
2023/11/15 11:27:31;;;;;;;6.57;5.70;;;12.30;99.90;;;;;;5088891;28;20191;-82
2023/11/15 11:30:17;;;;;;;10.80;5.60;;;12.30;99.90;;;;;;5084848;28;20446;-83
2023/11/15 11:32:47;;;;;;;7.22;5.68;;;12.30;99.90;;;;;;5075057;28;20253;-82
2023/11/15 11:36:03;;;;;;;7.83;5.30;;;12.10;99.90;;;;;;5093416;28;20201;-86
2023/11/15 11:38:43;;;;;;;12.65;7.35;;;12.00;99.90;;;;;;5088458;28;20438;-82
2023/11/15 11:41:10;;;;;;;15.95;8.40;;;12.00;99.90;;;;;;5092872;28;20241;-81
2023/11/15 11:43:37;;;;;;;9.70;5.40;;;11.80;99.90;;;;;;5080812;28;20204;-79
2023/11/15 11:46:15;;;;;;;8.43;6.85;;;11.90;99.90;;;;;;5083779;28;20195;-80
2023/11/15 11:48:43;;;;;;;15.25;7.10;;;12.00;99.90;;;;;;5088524;28;20206;-82
2023/11/15 11:51:10;;;;;;;7.80;6.35;;;11.90;99.90;;;;;;5079307;28;20224;-82
2023/11/15 11:53:39;;;;;;;11.77;9.23;;;12.00;99.90;;;;;;5082231;28;20199;-82
2023/11/15 11:56:08;;;;;;;12.88;8.30;;;11.80;99.90;;;;;;5067300;28;20332;-82
2023/11/15 11:58:36;;;;;;;13.10;9.30;;;12.00;99.90;;;;;;5085245;28;20310;-82
2023/11/15 12:01:05;;;;;;;19.67;10.00;;;12.20;99.90;;;;;;5076674;28;20276;-83
2023/11/15 12:03:33;;;;;;;14.48;11.07;;;12.00;99.90;;;;;;5074564;28;20286;-83
2023/11/15 12:06:08;;;;;;;11.95;8.45;;;12.00;99.90;;;;;;5073783;28;20206;-81
2023/11/15 12:08:36;;;;;;;15.32;11.00;;;11.90;99.90;;;;;;5076764;28;20243;-83
2023/11/15 12:11:04;;;;;;;14.25;9.85;;;12.10;99.90;;;;;;5068905;28;20237;-81
2023/11/15 12:13:48;;;;;;;13.07;9.80;;;12.20;99.90;;;;;;5077896;28;20203;-81
2023/11/15 12:16:19;;;;;;;18.77;10.57;;;12.40;99.90;;;;;;5071451;28;20202;-80
2023/11/15 12:19:08;;;;;;;11.90;8.77;;;12.40;99.90;;;;;;5074961;28;20647;-82
2023/11/15 12:21:38;;;;;;;12.30;9.35;;;12.40;99.90;;;;;;5069726;28;20467;-81
2023/11/15 12:24:09;;;;;;;12.00;9.65;;;12.50;99.90;;;;;;5069715;28;20301;-82
2023/11/15 12:26:45;;;;;;;13.40;8.90;;;12.40;99.90;;;;;;5078359;28;20207;-81
2023/11/15 12:29:20;;;;;;;14.35;9.95;;;12.40;99.90;;;;;;5081742;28;20206;-81
2023/11/15 12:31:49;;;;;;;18.05;8.98;;;12.20;99.90;;;;;;5074922;28;20295;-83
2023/11/15 12:34:16;;;;;;;15.27;9.60;;;12.00;99.90;;;;;;5081586;28;20214;-81
2023/11/15 12:36:46;;;;;;;12.00;8.55;;;12.00;99.90;;;;;;5074344;28;20223;-80
2023/11/15 12:39:13;;;;;;;15.25;10.00;;;12.10;99.90;;;;;;5069787;28;20738;-82
2023/11/15 12:41:47;;;;;;;18.23;10.48;;;12.10;99.90;;;;;;5073400;28;20324;-82
2023/11/15 12:44:14;;;;;;;19.13;9.20;;;12.20;99.90;;;;;;5074189;28;20213;-81
2023/11/15 12:46:42;;;;;;;14.00;9.52;;;12.20;99.90;;;;;;5071916;28;20295;-81
2023/11/15 12:49:14;;;;;;;13.07;8.05;;;12.20;99.90;;;;;;5082021;28;20211;-81
2023/11/15 12:51:47;;;;;;;14.73;9.45;;;12.30;99.90;;;;;;5082296;28;20230;-82
2023/11/15 12:54:14;;;;;;;14.07;9.70;;;12.50;99.90;;;;;;5081399;28;20312;-83
2023/11/15 12:56:42;;;;;;;13.20;8.60;;;12.70;99.90;;;;;;5072401;28;20204;-82
2023/11/15 12:59:13;;;;;;;20.02;10.23;;;12.70;99.90;;;;;;5076517;28;20204;-82